< < Back
Terminal Aerodrome Forecast


Current Version              Previous Versions:   1  2  3  4  5  6  7  8  9  

Terminal Aerodrome Forecast

000
FTUS42 KGSP 162000 AAA
TAFGSP
TAF AMD
KGSP 162039Z 1621/1718 20007KT P6SM VCTS BKN040CB
      TEMPO 1621/1624 VRB10G20KT 4SM TSRA BKN030CB
     FM170000 35003KT P6SM VCTS BKN050CB
     FM170300 00000KT 6SM BR SCT045 SCT250
      TEMPO 1710/1713 4SM BR BKN025
     FM171300 02005KT P6SM SCT030 SCT250=

Latest METAR

525
SAUS70 KWBC 152100 RRX
MTRGSP
METAR KGSP 162053Z 14007KT 10SM FEW070 29/20 A2995 RMK AO2 LTG DSNT W-N
SLP129 T02890200 58023


USA.gov is the U.S. government's official web portal to all federal, state and local government web resources and services.